sensor_id;sensor_type;location;lat;lon;timestamp;temperature;humidity
26262;DHT22;13988;52.446;13.280;2023-11-19T00:02:20;4.50;99.90
26262;DHT22;13988;52.446;13.280;2023-11-19T00:04:46;4.50;99.90
26262;DHT22;13988;52.446;13.280;2023-11-19T00:07:11;4.50;99.90
26262;DHT22;13988;52.446;13.280;2023-11-19T00:09:39;4.50;99.90
26262;DHT22;13988;52.446;13.280;2023-11-19T00:12:05;4.50;99.90
26262;DHT22;13988;52.446;13.280;2023-11-19T00:14:31;4.50;99.90
26262;DHT22;13988;52.446;13.280;2023-11-19T00:16:57;4.50;99.90
26262;DHT22;13988;52.446;13.280;2023-11-19T00:19:22;4.60;99.90
26262;DHT22;13988;52.446;13.280;2023-11-19T00:21:48;4.50;99.90
26262;DHT22;13988;52.446;13.280;2023-11-19T00:24:13;4.50;99.90
26262;DHT22;13988;52.446;13.280;2023-11-19T00:26:42;4.50;99.90
26262;DHT22;13988;52.446;13.280;2023-11-19T00:29:08;4.50;99.90
26262;DHT22;13988;52.446;13.280;2023-11-19T00:31:33;4.60;99.90
26262;DHT22;13988;52.446;13.280;2023-11-19T00:33:59;4.50;99.90
26262;DHT22;13988;52.446;13.280;2023-11-19T00:36:25;4.50;99.90
26262;DHT22;13988;52.446;13.280;2023-11-19T00:38:53;4.60;99.90
26262;DHT22;13988;52.446;13.280;2023-11-19T00:41:19;4.60;99.90
26262;DHT22;13988;52.446;13.280;2023-11-19T00:43:45;4.60;99.90
26262;DHT22;13988;52.446;13.280;2023-11-19T00:46:11;4.70;99.90
26262;DHT22;13988;52.446;13.280;2023-11-19T00:48:37;4.60;99.90
26262;DHT22;13988;52.446;13.280;2023-11-19T00:51:03;4.70;99.90
26262;DHT22;13988;52.446;13.280;2023-11-19T00:53:30;4.70;99.90
26262;DHT22;13988;52.446;13.280;2023-11-19T00:55:55;4.60;99.90
26262;DHT22;13988;52.446;13.280;2023-11-19T00:58:21;4.60;99.90
26262;DHT22;13988;52.446;13.280;2023-11-19T01:00:47;4.60;99.90
26262;DHT22;13988;52.446;13.280;2023-11-19T01:03:13;4.60;99.90
26262;DHT22;13988;52.446;13.280;2023-11-19T01:05:40;4.70;99.90
26262;DHT22;13988;52.446;13.280;2023-11-19T01:08:06;4.70;99.90
26262;DHT22;13988;52.446;13.280;2023-11-19T01:10:32;4.70;99.90
26262;DHT22;13988;52.446;13.280;2023-11-19T01:12:57;4.70;99.90
26262;DHT22;13988;52.446;13.280;2023-11-19T01:15:24;4.70;99.90
26262;DHT22;13988;52.446;13.280;2023-11-19T01:17:50;4.70;99.90
26262;DHT22;13988;52.446;13.280;2023-11-19T01:20:16;4.70;99.90
26262;DHT22;13988;52.446;13.280;2023-11-19T01:22:42;4.70;99.90
26262;DHT22;13988;52.446;13.280;2023-11-19T01:25:08;4.70;99.90
26262;DHT22;13988;52.446;13.280;2023-11-19T01:27:34;4.80;99.90
26262;DHT22;13988;52.446;13.280;2023-11-19T01:30:01;4.70;99.90
26262;DHT22;13988;52.446;13.280;2023-11-19T01:32:31;4.70;99.90
26262;DHT22;13988;52.446;13.280;2023-11-19T01:34:57;4.70;99.90
26262;DHT22;13988;52.446;13.280;2023-11-19T01:37:23;4.70;99.90
26262;DHT22;13988;52.446;13.280;2023-11-19T01:39:48;4.70;99.90
26262;DHT22;13988;52.446;13.280;2023-11-19T01:42:14;4.70;99.90
26262;DHT22;13988;52.446;13.280;2023-11-19T01:44:41;4.70;99.90
26262;DHT22;13988;52.446;13.280;2023-11-19T01:47:08;4.70;99.90
26262;DHT22;13988;52.446;13.280;2023-11-19T01:49:34;4.70;99.90
26262;DHT22;13988;52.446;13.280;2023-11-19T01:52:00;4.70;99.90
26262;DHT22;13988;52.446;13.280;2023-11-19T01:54:26;4.60;99.90
26262;DHT22;13988;52.446;13.280;2023-11-19T01:56:56;4.60;99.90
26262;DHT22;13988;52.446;13.280;2023-11-19T01:59:22;4.60;99.90
26262;DHT22;13988;52.446;13.280;2023-11-19T02:01:52;4.60;99.90
26262;DHT22;13988;52.446;13.280;2023-11-19T02:04:19;4.60;99.90
26262;DHT22;13988;52.446;13.280;2023-11-19T02:06:48;4.70;99.90
26262;DHT22;13988;52.446;13.280;2023-11-19T02:09:18;4.70;99.90
26262;DHT22;13988;52.446;13.280;2023-11-19T02:11:45;4.70;99.90
26262;DHT22;13988;52.446;13.280;2023-11-19T02:14:15;4.70;99.90
26262;DHT22;13988;52.446;13.280;2023-11-19T02:16:40;4.70;99.90
26262;DHT22;13988;52.446;13.280;2023-11-19T02:19:06;4.70;99.90
26262;DHT22;13988;52.446;13.280;2023-11-19T02:21:33;4.80;99.90
26262;DHT22;13988;52.446;13.280;2023-11-19T02:23:59;4.80;99.90
26262;DHT22;13988;52.446;13.280;2023-11-19T02:26:27;4.70;99.90
26262;DHT22;13988;52.446;13.280;2023-11-19T02:28:54;4.70;99.90
26262;DHT22;13988;52.446;13.280;2023-11-19T02:31:20;4.80;99.90
26262;DHT22;13988;52.446;13.280;2023-11-19T02:33:45;4.80;99.90
26262;DHT22;13988;52.446;13.280;2023-11-19T02:36:11;4.80;99.90
26262;DHT22;13988;52.446;13.280;2023-11-19T02:38:37;4.80;99.90
26262;DHT22;13988;52.446;13.280;2023-11-19T02:41:07;4.90;99.90
26262;DHT22;13988;52.446;13.280;2023-11-19T02:43:37;4.80;99.90
26262;DHT22;13988;52.446;13.280;2023-11-19T02:46:04;4.80;99.90
26262;DHT22;13988;52.446;13.280;2023-11-19T02:48:37;4.80;99.90
26262;DHT22;13988;52.446;13.280;2023-11-19T02:51:03;4.80;99.90
26262;DHT22;13988;52.446;13.280;2023-11-19T02:53:29;4.90;99.90
26262;DHT22;13988;52.446;13.280;2023-11-19T02:55:55;4.80;99.90
26262;DHT22;13988;52.446;13.280;2023-11-19T02:58:27;4.90;99.90
26262;DHT22;13988;52.446;13.280;2023-11-19T03:00:54;4.90;99.90
26262;DHT22;13988;52.446;13.280;2023-11-19T03:03:26;4.90;99.90
26262;DHT22;13988;52.446;13.280;2023-11-19T03:06:07;4.90;99.90
26262;DHT22;13988;52.446;13.280;2023-11-19T03:08:36;4.90;99.90
26262;DHT22;13988;52.446;13.280;2023-11-19T03:11:02;4.90;99.90
26262;DHT22;13988;52.446;13.280;2023-11-19T03:13:30;4.90;99.90
26262;DHT22;13988;52.446;13.280;2023-11-19T03:15:56;4.90;99.90
26262;DHT22;13988;52.446;13.280;2023-11-19T03:18:21;4.90;99.90
26262;DHT22;13988;52.446;13.280;2023-11-19T03:20:47;4.90;99.90
26262;DHT22;13988;52.446;13.280;2023-11-19T03:23:13;5.00;99.90
26262;DHT22;13988;52.446;13.280;2023-11-19T03:25:39;5.00;99.90
26262;DHT22;13988;52.446;13.280;2023-11-19T03:28:04;4.90;99.90
26262;DHT22;13988;52.446;13.280;2023-11-19T03:30:30;4.90;99.90
26262;DHT22;13988;52.446;13.280;2023-11-19T03:32:56;4.90;99.90
26262;DHT22;13988;52.446;13.280;2023-11-19T03:35:23;4.90;99.90
26262;DHT22;13988;52.446;13.280;2023-11-19T03:37:50;4.80;99.90
26262;DHT22;13988;52.446;13.280;2023-11-19T03:40:16;4.80;99.90
26262;DHT22;13988;52.446;13.280;2023-11-19T03:42:42;4.80;99.90
26262;DHT22;13988;52.446;13.280;2023-11-19T03:45:09;4.80;99.90
26262;DHT22;13988;52.446;13.280;2023-11-19T03:47:35;4.70;99.90
26262;DHT22;13988;52.446;13.280;2023-11-19T03:50:01;4.70;99.90
26262;DHT22;13988;52.446;13.280;2023-11-19T03:52:28;4.70;99.90
26262;DHT22;13988;52.446;13.280;2023-11-19T03:54:54;4.70;99.90
26262;DHT22;13988;52.446;13.280;2023-11-19T03:57:21;4.70;99.90
26262;DHT22;13988;52.446;13.280;2023-11-19T03:59:47;4.70;99.90
26262;DHT22;13988;52.446;13.280;2023-11-19T04:02:13;4.70;99.90
26262;DHT22;13988;52.446;13.280;2023-11-19T04:04:39;4.70;99.90
26262;DHT22;13988;52.446;13.280;2023-11-19T04:07:05;4.70;99.90
26262;DHT22;13988;52.446;13.280;2023-11-19T04:09:31;4.70;99.90
26262;DHT22;13988;52.446;13.280;2023-11-19T04:11:58;4.70;99.90
26262;DHT22;13988;52.446;13.280;2023-11-19T04:14:24;4.70;99.90
26262;DHT22;13988;52.446;13.280;2023-11-19T04:16:50;4.70;99.90
26262;DHT22;13988;52.446;13.280;2023-11-19T04:19:17;4.70;99.90
26262;DHT22;13988;52.446;13.280;2023-11-19T04:21:42;4.70;99.90
26262;DHT22;13988;52.446;13.280;2023-11-19T04:24:09;4.70;99.90
26262;DHT22;13988;52.446;13.280;2023-11-19T04:26:42;4.70;99.90
26262;DHT22;13988;52.446;13.280;2023-11-19T04:29:11;4.70;99.90
26262;DHT22;13988;52.446;13.280;2023-11-19T04:31:38;4.70;99.90
26262;DHT22;13988;52.446;13.280;2023-11-19T04:34:05;4.70;99.90
26262;DHT22;13988;52.446;13.280;2023-11-19T04:36:32;4.70;99.90
26262;DHT22;13988;52.446;13.280;2023-11-19T04:38:58;4.70;99.90
26262;DHT22;13988;52.446;13.280;2023-11-19T04:41:25;4.70;99.90
26262;DHT22;13988;52.446;13.280;2023-11-19T04:43:51;4.80;99.90
26262;DHT22;13988;52.446;13.280;2023-11-19T04:46:16;4.70;99.90
26262;DHT22;13988;52.446;13.280;2023-11-19T04:48:42;4.70;99.90
26262;DHT22;13988;52.446;13.280;2023-11-19T04:51:08;4.70;99.90
26262;DHT22;13988;52.446;13.280;2023-11-19T04:53:35;4.80;99.90
26262;DHT22;13988;52.446;13.280;2023-11-19T04:56:00;4.70;99.90
26262;DHT22;13988;52.446;13.280;2023-11-19T04:58:29;4.70;99.90
26262;DHT22;13988;52.446;13.280;2023-11-19T05:00:54;4.70;99.90
26262;DHT22;13988;52.446;13.280;2023-11-19T05:03:20;4.70;99.90
26262;DHT22;13988;52.446;13.280;2023-11-19T05:05:48;4.70;99.90
26262;DHT22;13988;52.446;13.280;2023-11-19T05:08:14;4.70;99.90
26262;DHT22;13988;52.446;13.280;2023-11-19T05:10:39;4.80;99.90
26262;DHT22;13988;52.446;13.280;2023-11-19T05:13:05;4.70;99.90
26262;DHT22;13988;52.446;13.280;2023-11-19T05:15:31;4.70;99.90
26262;DHT22;13988;52.446;13.280;2023-11-19T05:17:56;4.80;99.90
26262;DHT22;13988;52.446;13.280;2023-11-19T05:20:22;4.70;99.90
26262;DHT22;13988;52.446;13.280;2023-11-19T05:22:49;4.80;99.90
26262;DHT22;13988;52.446;13.280;2023-11-19T05:25:18;4.70;99.90
26262;DHT22;13988;52.446;13.280;2023-11-19T05:27:45;4.80;99.90
26262;DHT22;13988;52.446;13.280;2023-11-19T05:30:11;4.80;99.90
26262;DHT22;13988;52.446;13.280;2023-11-19T05:32:37;4.80;99.90
26262;DHT22;13988;52.446;13.280;2023-11-19T05:35:02;4.80;99.90
26262;DHT22;13988;52.446;13.280;2023-11-19T05:37:28;4.80;99.90
26262;DHT22;13988;52.446;13.280;2023-11-19T05:39:54;4.80;99.90
26262;DHT22;13988;52.446;13.280;2023-11-19T05:42:20;4.80;99.90
26262;DHT22;13988;52.446;13.280;2023-11-19T05:44:45;4.80;99.90
26262;DHT22;13988;52.446;13.280;2023-11-19T05:47:11;4.80;99.90
26262;DHT22;13988;52.446;13.280;2023-11-19T05:49:37;4.80;99.90
26262;DHT22;13988;52.446;13.280;2023-11-19T05:52:03;4.80;99.90
26262;DHT22;13988;52.446;13.280;2023-11-19T05:54:29;4.80;99.90
26262;DHT22;13988;52.446;13.280;2023-11-19T05:56:54;4.80;99.90
26262;DHT22;13988;52.446;13.280;2023-11-19T05:59:20;4.80;99.90
26262;DHT22;13988;52.446;13.280;2023-11-19T06:01:48;4.80;99.90
26262;DHT22;13988;52.446;13.280;2023-11-19T06:04:14;4.80;99.90
26262;DHT22;13988;52.446;13.280;2023-11-19T06:06:39;4.90;99.90
26262;DHT22;13988;52.446;13.280;2023-11-19T06:09:06;4.90;99.90
26262;DHT22;13988;52.446;13.280;2023-11-19T06:11:33;4.90;99.90
26262;DHT22;13988;52.446;13.280;2023-11-19T06:13:59;5.00;99.90
26262;DHT22;13988;52.446;13.280;2023-11-19T06:16:25;4.90;99.90
26262;DHT22;13988;52.446;13.280;2023-11-19T06:18:50;4.90;99.90
26262;DHT22;13988;52.446;13.280;2023-11-19T06:21:16;4.90;99.90
26262;DHT22;13988;52.446;13.280;2023-11-19T06:23:42;4.90;99.90
26262;DHT22;13988;52.446;13.280;2023-11-19T06:26:07;4.90;99.90
26262;DHT22;13988;52.446;13.280;2023-11-19T06:28:34;4.90;99.90
26262;DHT22;13988;52.446;13.280;2023-11-19T06:31:00;4.90;99.90
26262;DHT22;13988;52.446;13.280;2023-11-19T06:33:26;4.90;99.90
26262;DHT22;13988;52.446;13.280;2023-11-19T06:35:52;4.90;99.90
26262;DHT22;13988;52.446;13.280;2023-11-19T06:38:18;4.90;99.90
26262;DHT22;13988;52.446;13.280;2023-11-19T06:40:44;4.90;99.90
26262;DHT22;13988;52.446;13.280;2023-11-19T06:43:09;4.90;99.90
26262;DHT22;13988;52.446;13.280;2023-11-19T06:45:35;4.90;99.90
26262;DHT22;13988;52.446;13.280;2023-11-19T06:48:05;5.00;99.90
26262;DHT22;13988;52.446;13.280;2023-11-19T06:50:33;5.00;99.90
26262;DHT22;13988;52.446;13.280;2023-11-19T06:52:59;5.00;99.90
26262;DHT22;13988;52.446;13.280;2023-11-19T06:55:25;5.00;99.90
26262;DHT22;13988;52.446;13.280;2023-11-19T06:57:51;5.00;99.90
26262;DHT22;13988;52.446;13.280;2023-11-19T07:00:17;5.10;99.90
26262;DHT22;13988;52.446;13.280;2023-11-19T07:02:44;5.00;99.90
26262;DHT22;13988;52.446;13.280;2023-11-19T07:05:10;5.10;99.90
26262;DHT22;13988;52.446;13.280;2023-11-19T07:07:36;5.10;99.90
26262;DHT22;13988;52.446;13.280;2023-11-19T07:10:02;5.10;99.90
26262;DHT22;13988;52.446;13.280;2023-11-19T07:12:29;5.10;99.90
26262;DHT22;13988;52.446;13.280;2023-11-19T07:14:55;5.10;99.90
26262;DHT22;13988;52.446;13.280;2023-11-19T07:17:21;5.10;99.90
26262;DHT22;13988;52.446;13.280;2023-11-19T07:19:49;5.10;99.90
26262;DHT22;13988;52.446;13.280;2023-11-19T07:22:15;5.20;99.90
26262;DHT22;13988;52.446;13.280;2023-11-19T07:24:41;5.20;99.90
26262;DHT22;13988;52.446;13.280;2023-11-19T07:27:07;5.30;99.90
26262;DHT22;13988;52.446;13.280;2023-11-19T07:29:37;5.20;99.90
26262;DHT22;13988;52.446;13.280;2023-11-19T07:32:02;5.30;99.90
26262;DHT22;13988;52.446;13.280;2023-11-19T07:34:28;5.30;99.90
26262;DHT22;13988;52.446;13.280;2023-11-19T07:36:54;5.30;99.90
26262;DHT22;13988;52.446;13.280;2023-11-19T07:39:24;5.30;99.90
26262;DHT22;13988;52.446;13.280;2023-11-19T07:41:50;5.30;99.90
26262;DHT22;13988;52.446;13.280;2023-11-19T07:44:16;5.30;99.90
26262;DHT22;13988;52.446;13.280;2023-11-19T07:46:41;5.30;99.90
26262;DHT22;13988;52.446;13.280;2023-11-19T07:49:10;5.40;99.90
26262;DHT22;13988;52.446;13.280;2023-11-19T07:51:36;5.50;99.90
26262;DHT22;13988;52.446;13.280;2023-11-19T07:54:02;5.50;99.90
26262;DHT22;13988;52.446;13.280;2023-11-19T07:56:27;5.50;99.90
26262;DHT22;13988;52.446;13.280;2023-11-19T07:58:53;5.50;99.90
26262;DHT22;13988;52.446;13.280;2023-11-19T08:01:19;5.50;99.90
26262;DHT22;13988;52.446;13.280;2023-11-19T08:03:44;5.50;99.90
26262;DHT22;13988;52.446;13.280;2023-11-19T08:06:10;5.60;99.90
26262;DHT22;13988;52.446;13.280;2023-11-19T08:08:36;5.60;99.90
26262;DHT22;13988;52.446;13.280;2023-11-19T08:11:03;5.70;99.90
26262;DHT22;13988;52.446;13.280;2023-11-19T08:13:30;5.70;99.90
26262;DHT22;13988;52.446;13.280;2023-11-19T08:15:57;5.80;99.90
26262;DHT22;13988;52.446;13.280;2023-11-19T08:18:24;5.90;99.90
26262;DHT22;13988;52.446;13.280;2023-11-19T08:20:49;6.00;99.90
26262;DHT22;13988;52.446;13.280;2023-11-19T08:23:21;6.10;99.90
26262;DHT22;13988;52.446;13.280;2023-11-19T08:25:49;6.20;99.90
26262;DHT22;13988;52.446;13.280;2023-11-19T08:28:15;6.30;99.90
26262;DHT22;13988;52.446;13.280;2023-11-19T08:30:40;6.30;99.90
26262;DHT22;13988;52.446;13.280;2023-11-19T08:33:06;6.30;99.90
26262;DHT22;13988;52.446;13.280;2023-11-19T08:35:32;6.40;99.90
26262;DHT22;13988;52.446;13.280;2023-11-19T08:37:58;6.50;99.90
26262;DHT22;13988;52.446;13.280;2023-11-19T08:40:24;6.50;99.90
26262;DHT22;13988;52.446;13.280;2023-11-19T08:42:51;6.60;99.90
26262;DHT22;13988;52.446;13.280;2023-11-19T08:45:17;6.60;99.90
26262;DHT22;13988;52.446;13.280;2023-11-19T08:47:43;6.60;99.90
26262;DHT22;13988;52.446;13.280;2023-11-19T08:50:11;6.70;99.90
26262;DHT22;13988;52.446;13.280;2023-11-19T08:52:37;6.90;99.90
26262;DHT22;13988;52.446;13.280;2023-11-19T08:55:02;6.90;99.90
26262;DHT22;13988;52.446;13.280;2023-11-19T08:57:30;6.90;99.90
26262;DHT22;13988;52.446;13.280;2023-11-19T08:59:56;6.90;99.90
26262;DHT22;13988;52.446;13.280;2023-11-19T09:02:22;6.90;99.90
26262;DHT22;13988;52.446;13.280;2023-11-19T09:04:47;6.90;99.90
26262;DHT22;13988;52.446;13.280;2023-11-19T09:07:13;7.00;99.90
26262;DHT22;13988;52.446;13.280;2023-11-19T09:09:39;7.00;99.90
26262;DHT22;13988;52.446;13.280;2023-11-19T09:12:04;7.10;99.90
26262;DHT22;13988;52.446;13.280;2023-11-19T09:14:30;7.20;99.90
26262;DHT22;13988;52.446;13.280;2023-11-19T09:16:56;7.30;99.90
26262;DHT22;13988;52.446;13.280;2023-11-19T09:19:23;7.40;99.90
26262;DHT22;13988;52.446;13.280;2023-11-19T09:21:49;7.40;99.90
26262;DHT22;13988;52.446;13.280;2023-11-19T09:24:15;7.50;99.90
26262;DHT22;13988;52.446;13.280;2023-11-19T09:26:41;7.60;99.90
26262;DHT22;13988;52.446;13.280;2023-11-19T09:29:10;7.70;99.90
26262;DHT22;13988;52.446;13.280;2023-11-19T09:31:38;7.70;99.90
26262;DHT22;13988;52.446;13.280;2023-11-19T09:34:04;7.70;99.90
26262;DHT22;13988;52.446;13.280;2023-11-19T09:36:29;7.90;99.90
26262;DHT22;13988;52.446;13.280;2023-11-19T09:38:55;8.10;99.90
26262;DHT22;13988;52.446;13.280;2023-11-19T09:41:21;8.20;99.90
26262;DHT22;13988;52.446;13.280;2023-11-19T09:43:47;8.30;99.90
26262;DHT22;13988;52.446;13.280;2023-11-19T09:46:16;8.30;99.90
26262;DHT22;13988;52.446;13.280;2023-11-19T09:48:42;8.50;99.90
26262;DHT22;13988;52.446;13.280;2023-11-19T09:51:11;8.60;99.90
26262;DHT22;13988;52.446;13.280;2023-11-19T09:53:38;8.70;99.90
26262;DHT22;13988;52.446;13.280;2023-11-19T09:56:07;8.80;99.90
26262;DHT22;13988;52.446;13.280;2023-11-19T09:58:35;8.90;99.90
26262;DHT22;13988;52.446;13.280;2023-11-19T10:01:01;8.90;99.90
26262;DHT22;13988;52.446;13.280;2023-11-19T10:03:35;8.90;99.90
26262;DHT22;13988;52.446;13.280;2023-11-19T10:06:07;9.00;99.90
26262;DHT22;13988;52.446;13.280;2023-11-19T10:08:33;8.90;99.90
26262;DHT22;13988;52.446;13.280;2023-11-19T10:10:59;9.00;99.90
26262;DHT22;13988;52.446;13.280;2023-11-19T10:13:28;9.00;99.90
26262;DHT22;13988;52.446;13.280;2023-11-19T10:15:55;9.10;99.90
26262;DHT22;13988;52.446;13.280;2023-11-19T10:18:26;9.20;99.90
26262;DHT22;13988;52.446;13.280;2023-11-19T10:20:52;9.30;99.90
26262;DHT22;13988;52.446;13.280;2023-11-19T10:23:18;9.40;99.90
26262;DHT22;13988;52.446;13.280;2023-11-19T10:25:44;9.50;99.90
26262;DHT22;13988;52.446;13.280;2023-11-19T10:28:10;9.60;99.90
26262;DHT22;13988;52.446;13.280;2023-11-19T10:30:36;9.60;99.90
26262;DHT22;13988;52.446;13.280;2023-11-19T10:33:08;9.70;99.90
26262;DHT22;13988;52.446;13.280;2023-11-19T10:38:22;9.90;99.90
26262;DHT22;13988;52.446;13.280;2023-11-19T10:40:48;9.90;99.90
26262;DHT22;13988;52.446;13.280;2023-11-19T10:43:14;10.10;99.90
26262;DHT22;13988;52.446;13.280;2023-11-19T10:45:40;10.10;99.90
26262;DHT22;13988;52.446;13.280;2023-11-19T10:48:06;10.20;99.90
26262;DHT22;13988;52.446;13.280;2023-11-19T10:50:39;10.30;99.90
26262;DHT22;13988;52.446;13.280;2023-11-19T10:53:07;10.20;99.90
26262;DHT22;13988;52.446;13.280;2023-11-19T10:55:35;10.20;99.90
26262;DHT22;13988;52.446;13.280;2023-11-19T10:58:10;10.30;99.90
26262;DHT22;13988;52.446;13.280;2023-11-19T11:03:25;10.40;99.90
26262;DHT22;13988;52.446;13.280;2023-11-19T11:05:51;10.50;99.90
26262;DHT22;13988;52.446;13.280;2023-11-19T11:08:18;10.40;99.90
26262;DHT22;13988;52.446;13.280;2023-11-19T11:10:57;10.50;99.90
26262;DHT22;13988;52.446;13.280;2023-11-19T11:13:26;10.50;99.90
26262;DHT22;13988;52.446;13.280;2023-11-19T11:15:57;10.40;99.90
26262;DHT22;13988;52.446;13.280;2023-11-19T11:18:26;10.30;99.90
26262;DHT22;13988;52.446;13.280;2023-11-19T11:21:01;10.30;99.90
26262;DHT22;13988;52.446;13.280;2023-11-19T11:23:54;10.40;99.90
26262;DHT22;13988;52.446;13.280;2023-11-19T11:26:48;10.40;99.90
26262;DHT22;13988;52.446;13.280;2023-11-19T11:29:38;10.40;99.90
26262;DHT22;13988;52.446;13.280;2023-11-19T11:32:25;10.50;99.90
26262;DHT22;13988;52.446;13.280;2023-11-19T11:38:04;10.60;99.90
26262;DHT22;13988;52.446;13.280;2023-11-19T11:40:29;10.80;99.90
26262;DHT22;13988;52.446;13.280;2023-11-19T11:42:56;11.00;99.90
26262;DHT22;13988;52.446;13.280;2023-11-19T11:45:35;11.20;99.90
26262;DHT22;13988;52.446;13.280;2023-11-19T11:48:17;11.40;99.90
26262;DHT22;13988;52.446;13.280;2023-11-19T11:50:53;11.50;99.90
26262;DHT22;13988;52.446;13.280;2023-11-19T11:53:20;11.70;99.90
26262;DHT22;13988;52.446;13.280;2023-11-19T11:58:17;11.50;99.90
26262;DHT22;13988;52.446;13.280;2023-11-19T12:00:43;11.40;99.90
26262;DHT22;13988;52.446;13.280;2023-11-19T12:03:09;11.30;99.90
26262;DHT22;13988;52.446;13.280;2023-11-19T12:05:44;11.40;99.90
26262;DHT22;13988;52.446;13.280;2023-11-19T12:08:11;11.30;99.90
26262;DHT22;13988;52.446;13.280;2023-11-19T12:10:44;11.20;99.90
26262;DHT22;13988;52.446;13.280;2023-11-19T12:13:10;11.20;99.90
26262;DHT22;13988;52.446;13.280;2023-11-19T12:18:27;11.20;99.90
26262;DHT22;13988;52.446;13.280;2023-11-19T12:20:53;11.20;99.90
26262;DHT22;13988;52.446;13.280;2023-11-19T12:23:19;11.20;99.90
26262;DHT22;13988;52.446;13.280;2023-11-19T12:25:45;11.20;99.90
26262;DHT22;13988;52.446;13.280;2023-11-19T12:28:17;11.30;99.90
26262;DHT22;13988;52.446;13.280;2023-11-19T12:30:44;11.20;99.90
26262;DHT22;13988;52.446;13.280;2023-11-19T12:33:10;11.10;99.90
26262;DHT22;13988;52.446;13.280;2023-11-19T12:35:43;11.30;99.90
26262;DHT22;13988;52.446;13.280;2023-11-19T12:40:46;11.30;99.90
26262;DHT22;13988;52.446;13.280;2023-11-19T12:43:21;11.20;99.90
26262;DHT22;13988;52.446;13.280;2023-11-19T12:45:47;11.20;99.90
26262;DHT22;13988;52.446;13.280;2023-11-19T12:48:13;11.20;99.90
26262;DHT22;13988;52.446;13.280;2023-11-19T12:50:55;11.30;99.90
26262;DHT22;13988;52.446;13.280;2023-11-19T12:53:22;11.40;99.90
26262;DHT22;13988;52.446;13.280;2023-11-19T12:55:48;11.30;99.90
26262;DHT22;13988;52.446;13.280;2023-11-19T12:58:35;11.30;99.90
26262;DHT22;13988;52.446;13.280;2023-11-19T13:01:06;11.40;99.90
26262;DHT22;13988;52.446;13.280;2023-11-19T13:03:36;11.40;99.90
26262;DHT22;13988;52.446;13.280;2023-11-19T13:06:06;11.40;99.90
26262;DHT22;13988;52.446;13.280;2023-11-19T13:08:50;11.30;99.90
26262;DHT22;13988;52.446;13.280;2023-11-19T13:11:36;11.10;99.90
26262;DHT22;13988;52.446;13.280;2023-11-19T13:14:03;11.10;99.90
26262;DHT22;13988;52.446;13.280;2023-11-19T13:16:36;11.10;99.90
26262;DHT22;13988;52.446;13.280;2023-11-19T13:19:02;11.10;99.90
26262;DHT22;13988;52.446;13.280;2023-11-19T13:21:28;11.40;99.90
26262;DHT22;13988;52.446;13.280;2023-11-19T13:23:55;11.50;99.90
26262;DHT22;13988;52.446;13.280;2023-11-19T13:26:21;12.00;99.90
26262;DHT22;13988;52.446;13.280;2023-11-19T13:28:46;11.90;99.90
26262;DHT22;13988;52.446;13.280;2023-11-19T13:31:12;11.70;99.90
26262;DHT22;13988;52.446;13.280;2023-11-19T13:33:38;11.50;99.90
26262;DHT22;13988;52.446;13.280;2023-11-19T13:36:04;11.30;99.90
26262;DHT22;13988;52.446;13.280;2023-11-19T13:38:34;11.20;99.90
26262;DHT22;13988;52.446;13.280;2023-11-19T13:41:01;11.10;99.90
26262;DHT22;13988;52.446;13.280;2023-11-19T13:43:27;11.10;99.90
26262;DHT22;13988;52.446;13.280;2023-11-19T13:45:56;11.10;99.90
26262;DHT22;13988;52.446;13.280;2023-11-19T13:48:22;11.00;99.90
26262;DHT22;13988;52.446;13.280;2023-11-19T13:50:48;11.00;99.90
26262;DHT22;13988;52.446;13.280;2023-11-19T13:53:13;11.00;99.90
26262;DHT22;13988;52.446;13.280;2023-11-19T13:55:39;10.80;99.90
26262;DHT22;13988;52.446;13.280;2023-11-19T13:58:04;11.00;99.90
26262;DHT22;13988;52.446;13.280;2023-11-19T14:00:30;10.80;99.90
26262;DHT22;13988;52.446;13.280;2023-11-19T14:02:56;10.90;99.90
26262;DHT22;13988;52.446;13.280;2023-11-19T14:05:21;10.80;99.90
26262;DHT22;13988;52.446;13.280;2023-11-19T14:07:48;10.70;99.90
26262;DHT22;13988;52.446;13.280;2023-11-19T14:10:14;10.70;99.90
26262;DHT22;13988;52.446;13.280;2023-11-19T14:12:41;10.80;99.90
26262;DHT22;13988;52.446;13.280;2023-11-19T14:15:08;10.80;99.90
26262;DHT22;13988;52.446;13.280;2023-11-19T14:17:38;10.80;99.90
26262;DHT22;13988;52.446;13.280;2023-11-19T14:20:05;10.80;99.90
26262;DHT22;13988;52.446;13.280;2023-11-19T14:22:42;10.80;99.90
26262;DHT22;13988;52.446;13.280;2023-11-19T14:25:09;10.90;99.90
26262;DHT22;13988;52.446;13.280;2023-11-19T14:27:41;10.90;99.90
26262;DHT22;13988;52.446;13.280;2023-11-19T14:30:08;10.80;99.90
26262;DHT22;13988;52.446;13.280;2023-11-19T14:32:36;10.90;99.90
26262;DHT22;13988;52.446;13.280;2023-11-19T14:35:03;10.80;99.90
26262;DHT22;13988;52.446;13.280;2023-11-19T14:37:29;10.90;99.90
26262;DHT22;13988;52.446;13.280;2023-11-19T14:39:56;10.80;99.90
26262;DHT22;13988;52.446;13.280;2023-11-19T14:42:23;10.80;99.90
26262;DHT22;13988;52.446;13.280;2023-11-19T14:44:49;10.70;99.90
26262;DHT22;13988;52.446;13.280;2023-11-19T14:47:15;10.80;99.90
26262;DHT22;13988;52.446;13.280;2023-11-19T14:49:41;10.80;99.90
26262;DHT22;13988;52.446;13.280;2023-11-19T14:52:06;10.80;99.90
26262;DHT22;13988;52.446;13.280;2023-11-19T14:54:32;10.70;99.90
26262;DHT22;13988;52.446;13.280;2023-11-19T14:56:58;10.80;99.90
26262;DHT22;13988;52.446;13.280;2023-11-19T14:59:25;10.60;99.90
26262;DHT22;13988;52.446;13.280;2023-11-19T15:01:50;10.60;99.90
26262;DHT22;13988;52.446;13.280;2023-11-19T15:04:16;10.60;99.90
26262;DHT22;13988;52.446;13.280;2023-11-19T15:06:43;10.50;99.90
26262;DHT22;13988;52.446;13.280;2023-11-19T15:09:08;10.50;99.90
26262;DHT22;13988;52.446;13.280;2023-11-19T15:11:35;10.50;99.90
26262;DHT22;13988;52.446;13.280;2023-11-19T15:14:01;10.40;99.90
26262;DHT22;13988;52.446;13.280;2023-11-19T15:16:26;10.30;99.90
26262;DHT22;13988;52.446;13.280;2023-11-19T15:18:58;10.40;99.90
26262;DHT22;13988;52.446;13.280;2023-11-19T15:21:29;10.30;99.90
26262;DHT22;13988;52.446;13.280;2023-11-19T15:23:55;10.20;99.90
26262;DHT22;13988;52.446;13.280;2023-11-19T15:26:21;10.20;99.90
26262;DHT22;13988;52.446;13.280;2023-11-19T15:28:47;10.10;99.90
26262;DHT22;13988;52.446;13.280;2023-11-19T15:31:13;10.10;99.90
26262;DHT22;13988;52.446;13.280;2023-11-19T15:33:41;10.10;99.90
26262;DHT22;13988;52.446;13.280;2023-11-19T15:36:07;10.10;99.90
26262;DHT22;13988;52.446;13.280;2023-11-19T15:38:36;10.00;99.90
26262;DHT22;13988;52.446;13.280;2023-11-19T15:41:02;10.00;99.90
26262;DHT22;13988;52.446;13.280;2023-11-19T15:43:28;10.00;99.90